Terminal Aerodrome Forecast
Issued by NWS

Home | Current Version | Previous Version | Text Only | Print | Product List | Glossary On
Versions: 1 2 3 4 5 6 7 8 9 10 11 12 13 14
644
FTUS44 KLIX 091721
TAFMSY
TAF
KMSY 091721Z 0918/1018 02011KT P6SM FEW250
     FM100000 04008KT P6SM SKC
     FM101200 06009KT P6SM SKC=

USA.gov is the U.S. government's official web portal to all federal, state and local government web resources and services.